sensor_id;sensor_type;location;lat;lon;timestamp;temperature;humidity
52765;DHT22;38650;44.536;18.664;2023-05-23T00:02:04;17.10;94.90
52765;DHT22;38650;44.536;18.664;2023-05-23T00:04:33;16.90;95.40
52765;DHT22;38650;44.536;18.664;2023-05-23T00:07:00;16.90;95.60
52765;DHT22;38650;44.536;18.664;2023-05-23T00:09:25;16.90;96.00
52765;DHT22;38650;44.536;18.664;2023-05-23T00:11:51;16.90;96.10
52765;DHT22;38650;44.536;18.664;2023-05-23T00:14:16;16.90;96.00
52765;DHT22;38650;44.536;18.664;2023-05-23T00:16:43;16.90;95.80
52765;DHT22;38650;44.536;18.664;2023-05-23T00:19:09;16.90;95.90
52765;DHT22;38650;44.536;18.664;2023-05-23T00:21:35;16.90;96.10
52765;DHT22;38650;44.536;18.664;2023-05-23T00:24:00;16.80;96.30
52765;DHT22;38650;44.536;18.664;2023-05-23T00:26:29;16.80;96.30
52765;DHT22;38650;44.536;18.664;2023-05-23T00:28:55;16.70;96.40
52765;DHT22;38650;44.536;18.664;2023-05-23T00:31:21;16.70;96.30
52765;DHT22;38650;44.536;18.664;2023-05-23T00:33:46;16.70;96.10
52765;DHT22;38650;44.536;18.664;2023-05-23T00:36:12;16.70;96.10
52765;DHT22;38650;44.536;18.664;2023-05-23T00:38:37;16.70;95.80
52765;DHT22;38650;44.536;18.664;2023-05-23T00:41:04;16.70;95.60
52765;DHT22;38650;44.536;18.664;2023-05-23T00:43:29;16.60;95.60
52765;DHT22;38650;44.536;18.664;2023-05-23T00:45:56;16.50;95.90
52765;DHT22;38650;44.536;18.664;2023-05-23T00:48:22;16.40;95.80
52765;DHT22;38650;44.536;18.664;2023-05-23T00:50:47;16.50;95.70
52765;DHT22;38650;44.536;18.664;2023-05-23T00:53:13;16.50;95.70
52765;DHT22;38650;44.536;18.664;2023-05-23T00:55:38;16.50;95.70
52765;DHT22;38650;44.536;18.664;2023-05-23T00:58:04;16.50;96.00
52765;DHT22;38650;44.536;18.664;2023-05-23T01:00:30;16.40;96.30
52765;DHT22;38650;44.536;18.664;2023-05-23T01:02:58;16.40;96.60
52765;DHT22;38650;44.536;18.664;2023-05-23T01:05:23;16.40;96.50
52765;DHT22;38650;44.536;18.664;2023-05-23T01:07:49;16.30;96.70
52765;DHT22;38650;44.536;18.664;2023-05-23T01:10:16;16.20;96.80
52765;DHT22;38650;44.536;18.664;2023-05-23T01:15:12;16.20;96.40
52765;DHT22;38650;44.536;18.664;2023-05-23T01:20:25;16.10;96.20
52765;DHT22;38650;44.536;18.664;2023-05-23T01:27:50;15.90;96.40
52765;DHT22;38650;44.536;18.664;2023-05-23T01:30:18;15.90;96.50
52765;DHT22;38650;44.536;18.664;2023-05-23T01:32:44;15.90;96.90
52765;DHT22;38650;44.536;18.664;2023-05-23T01:35:10;15.90;96.90
52765;DHT22;38650;44.536;18.664;2023-05-23T01:37:36;15.90;96.70
52765;DHT22;38650;44.536;18.664;2023-05-23T01:40:02;15.90;96.40
52765;DHT22;38650;44.536;18.664;2023-05-23T01:42:27;16.00;96.30
52765;DHT22;38650;44.536;18.664;2023-05-23T01:44:53;15.90;97.00
52765;DHT22;38650;44.536;18.664;2023-05-23T01:47:18;15.70;97.80
52765;DHT22;38650;44.536;18.664;2023-05-23T01:49:44;15.60;98.20
52765;DHT22;38650;44.536;18.664;2023-05-23T01:52:11;15.50;98.50
52765;DHT22;38650;44.536;18.664;2023-05-23T01:54:37;15.60;98.30
52765;DHT22;38650;44.536;18.664;2023-05-23T01:57:06;15.60;97.60
52765;DHT22;38650;44.536;18.664;2023-05-23T01:59:32;15.60;97.30
52765;DHT22;38650;44.536;18.664;2023-05-23T02:01:58;15.60;97.10
52765;DHT22;38650;44.536;18.664;2023-05-23T02:04:23;15.60;97.20
52765;DHT22;38650;44.536;18.664;2023-05-23T02:06:49;15.60;97.20
52765;DHT22;38650;44.536;18.664;2023-05-23T02:09:14;15.60;97.80
52765;DHT22;38650;44.536;18.664;2023-05-23T02:11:40;15.60;98.20
52765;DHT22;38650;44.536;18.664;2023-05-23T02:14:06;15.50;98.30
52765;DHT22;38650;44.536;18.664;2023-05-23T02:16:31;15.50;98.30
52765;DHT22;38650;44.536;18.664;2023-05-23T02:18:57;15.50;98.10
52765;DHT22;38650;44.536;18.664;2023-05-23T02:21:23;15.50;97.60
52765;DHT22;38650;44.536;18.664;2023-05-23T02:23:49;15.50;97.30
52765;DHT22;38650;44.536;18.664;2023-05-23T02:26:15;15.50;97.40
52765;DHT22;38650;44.536;18.664;2023-05-23T02:28:40;15.50;97.40
52765;DHT22;38650;44.536;18.664;2023-05-23T02:31:06;15.50;97.30
52765;DHT22;38650;44.536;18.664;2023-05-23T02:33:31;15.50;97.20
52765;DHT22;38650;44.536;18.664;2023-05-23T02:35:57;15.40;97.10
52765;DHT22;38650;44.536;18.664;2023-05-23T02:38:22;15.40;97.40
52765;DHT22;38650;44.536;18.664;2023-05-23T02:40:48;15.40;97.20
52765;DHT22;38650;44.536;18.664;2023-05-23T02:43:16;15.40;97.20
52765;DHT22;38650;44.536;18.664;2023-05-23T02:45:41;15.40;97.30
52765;DHT22;38650;44.536;18.664;2023-05-23T02:48:07;15.40;97.10
52765;DHT22;38650;44.536;18.664;2023-05-23T02:50:32;15.40;97.50
52765;DHT22;38650;44.536;18.664;2023-05-23T02:52:58;15.30;97.60
52765;DHT22;38650;44.536;18.664;2023-05-23T02:55:23;15.20;97.40
52765;DHT22;38650;44.536;18.664;2023-05-23T02:57:49;15.30;97.20
52765;DHT22;38650;44.536;18.664;2023-05-23T03:00:15;15.30;97.20
52765;DHT22;38650;44.536;18.664;2023-05-23T03:02:41;15.30;97.60
52765;DHT22;38650;44.536;18.664;2023-05-23T03:05:07;15.20;98.00
52765;DHT22;38650;44.536;18.664;2023-05-23T03:07:32;15.10;98.40
52765;DHT22;38650;44.536;18.664;2023-05-23T03:09:58;15.10;98.30
52765;DHT22;38650;44.536;18.664;2023-05-23T03:12:24;15.10;97.80
52765;DHT22;38650;44.536;18.664;2023-05-23T03:14:50;15.10;97.60
52765;DHT22;38650;44.536;18.664;2023-05-23T03:17:15;15.10;97.50
52765;DHT22;38650;44.536;18.664;2023-05-23T03:19:41;15.10;97.40
52765;DHT22;38650;44.536;18.664;2023-05-23T03:22:06;15.00;97.50
52765;DHT22;38650;44.536;18.664;2023-05-23T03:24:32;15.00;97.60
52765;DHT22;38650;44.536;18.664;2023-05-23T03:26:57;15.00;97.90
52765;DHT22;38650;44.536;18.664;2023-05-23T03:29:23;15.00;97.70
52765;DHT22;38650;44.536;18.664;2023-05-23T03:31:49;15.00;97.40
52765;DHT22;38650;44.536;18.664;2023-05-23T03:34:14;15.00;97.30
52765;DHT22;38650;44.536;18.664;2023-05-23T03:36:40;15.00;97.30
52765;DHT22;38650;44.536;18.664;2023-05-23T03:39:06;15.00;97.50
52765;DHT22;38650;44.536;18.664;2023-05-23T03:41:31;15.00;97.30
52765;DHT22;38650;44.536;18.664;2023-05-23T03:43:57;14.90;97.40
52765;DHT22;38650;44.536;18.664;2023-05-23T03:46:22;15.00;97.70
52765;DHT22;38650;44.536;18.664;2023-05-23T03:48:48;14.90;97.80
52765;DHT22;38650;44.536;18.664;2023-05-23T03:51:13;15.00;97.80
52765;DHT22;38650;44.536;18.664;2023-05-23T03:53:39;15.00;97.70
52765;DHT22;38650;44.536;18.664;2023-05-23T03:56:05;15.00;97.60
52765;DHT22;38650;44.536;18.664;2023-05-23T03:58:30;15.00;97.50
52765;DHT22;38650;44.536;18.664;2023-05-23T04:00:56;15.10;97.30
52765;DHT22;38650;44.536;18.664;2023-05-23T04:03:22;15.10;97.50
52765;DHT22;38650;44.536;18.664;2023-05-23T04:05:48;15.10;97.50
52765;DHT22;38650;44.536;18.664;2023-05-23T04:08:13;15.10;97.40
52765;DHT22;38650;44.536;18.664;2023-05-23T04:10:40;15.20;97.50
52765;DHT22;38650;44.536;18.664;2023-05-23T04:13:05;15.20;97.50
52765;DHT22;38650;44.536;18.664;2023-05-23T04:15:31;15.20;97.50
52765;DHT22;38650;44.536;18.664;2023-05-23T04:17:58;15.20;97.70
52765;DHT22;38650;44.536;18.664;2023-05-23T04:20:24;15.20;97.80
52765;DHT22;38650;44.536;18.664;2023-05-23T04:22:50;15.30;98.30
52765;DHT22;38650;44.536;18.664;2023-05-23T04:25:15;15.30;98.70
52765;DHT22;38650;44.536;18.664;2023-05-23T04:27:43;15.30;99.00
52765;DHT22;38650;44.536;18.664;2023-05-23T04:30:08;15.30;99.30
52765;DHT22;38650;44.536;18.664;2023-05-23T04:32:35;15.30;99.50
52765;DHT22;38650;44.536;18.664;2023-05-23T04:35:00;15.30;99.30
52765;DHT22;38650;44.536;18.664;2023-05-23T04:37:26;15.30;99.50
52765;DHT22;38650;44.536;18.664;2023-05-23T04:39:52;15.40;99.50
52765;DHT22;38650;44.536;18.664;2023-05-23T04:42:18;15.40;99.40
52765;DHT22;38650;44.536;18.664;2023-05-23T04:44:49;15.50;99.50
52765;DHT22;38650;44.536;18.664;2023-05-23T04:47:14;15.60;99.30
52765;DHT22;38650;44.536;18.664;2023-05-23T04:49:40;15.60;98.80
52765;DHT22;38650;44.536;18.664;2023-05-23T04:52:06;15.70;98.50
52765;DHT22;38650;44.536;18.664;2023-05-23T04:54:32;15.70;98.30
52765;DHT22;38650;44.536;18.664;2023-05-23T04:56:57;15.80;98.10
52765;DHT22;38650;44.536;18.664;2023-05-23T04:59:23;15.80;98.20
52765;DHT22;38650;44.536;18.664;2023-05-23T05:01:48;15.90;98.40
52765;DHT22;38650;44.536;18.664;2023-05-23T05:04:14;16.00;98.20
52765;DHT22;38650;44.536;18.664;2023-05-23T05:06:40;15.90;98.20
52765;DHT22;38650;44.536;18.664;2023-05-23T05:09:06;16.00;98.50
52765;DHT22;38650;44.536;18.664;2023-05-23T05:11:31;16.00;99.00
52765;DHT22;38650;44.536;18.664;2023-05-23T05:13:57;16.00;98.80
52765;DHT22;38650;44.536;18.664;2023-05-23T05:16:23;16.10;99.00
52765;DHT22;38650;44.536;18.664;2023-05-23T05:18:48;16.20;99.10
52765;DHT22;38650;44.536;18.664;2023-05-23T05:21:14;16.10;99.00
52765;DHT22;38650;44.536;18.664;2023-05-23T05:23:40;16.10;99.50
52765;DHT22;38650;44.536;18.664;2023-05-23T05:26:06;16.00;99.80
52765;DHT22;38650;44.536;18.664;2023-05-23T05:28:32;16.10;99.90
52765;DHT22;38650;44.536;18.664;2023-05-23T05:30:58;16.20;99.90
52765;DHT22;38650;44.536;18.664;2023-05-23T05:33:23;16.40;99.80
52765;DHT22;38650;44.536;18.664;2023-05-23T05:35:49;16.50;99.00
52765;DHT22;38650;44.536;18.664;2023-05-23T05:38:17;16.70;98.80
52765;DHT22;38650;44.536;18.664;2023-05-23T05:40:43;16.80;98.90
52765;DHT22;38650;44.536;18.664;2023-05-23T05:43:08;16.90;98.70
52765;DHT22;38650;44.536;18.664;2023-05-23T05:45:34;17.00;98.30
52765;DHT22;38650;44.536;18.664;2023-05-23T05:48:00;17.10;98.40
52765;DHT22;38650;44.536;18.664;2023-05-23T05:50:26;17.10;97.90
52765;DHT22;38650;44.536;18.664;2023-05-23T05:52:51;17.20;97.70
52765;DHT22;38650;44.536;18.664;2023-05-23T05:55:17;17.40;97.60
52765;DHT22;38650;44.536;18.664;2023-05-23T05:57:42;17.50;98.00
52765;DHT22;38650;44.536;18.664;2023-05-23T06:00:09;17.70;98.10
52765;DHT22;38650;44.536;18.664;2023-05-23T06:02:42;17.80;97.70
52765;DHT22;38650;44.536;18.664;2023-05-23T06:05:10;17.80;97.00
52765;DHT22;38650;44.536;18.664;2023-05-23T06:07:37;18.00;97.30
52765;DHT22;38650;44.536;18.664;2023-05-23T06:10:02;18.20;96.40
52765;DHT22;38650;44.536;18.664;2023-05-23T06:12:28;18.30;96.50
52765;DHT22;38650;44.536;18.664;2023-05-23T06:14:54;18.40;96.90
52765;DHT22;38650;44.536;18.664;2023-05-23T06:17:19;18.60;95.60
52765;DHT22;38650;44.536;18.664;2023-05-23T06:19:45;18.70;96.60
52765;DHT22;38650;44.536;18.664;2023-05-23T06:22:10;18.90;96.50
52765;DHT22;38650;44.536;18.664;2023-05-23T06:24:36;19.00;96.40
52765;DHT22;38650;44.536;18.664;2023-05-23T06:27:01;19.20;95.70
52765;DHT22;38650;44.536;18.664;2023-05-23T06:29:27;19.30;94.90
52765;DHT22;38650;44.536;18.664;2023-05-23T06:31:53;19.40;95.10
52765;DHT22;38650;44.536;18.664;2023-05-23T06:34:18;19.60;94.80
52765;DHT22;38650;44.536;18.664;2023-05-23T06:36:44;19.60;93.40
52765;DHT22;38650;44.536;18.664;2023-05-23T06:39:11;19.70;93.10
52765;DHT22;38650;44.536;18.664;2023-05-23T06:41:37;19.90;92.80
52765;DHT22;38650;44.536;18.664;2023-05-23T06:44:03;20.00;94.80
52765;DHT22;38650;44.536;18.664;2023-05-23T06:46:28;20.20;92.20
52765;DHT22;38650;44.536;18.664;2023-05-23T06:48:54;20.30;92.40
52765;DHT22;38650;44.536;18.664;2023-05-23T06:51:19;20.50;91.10
52765;DHT22;38650;44.536;18.664;2023-05-23T06:53:45;20.60;91.30
52765;DHT22;38650;44.536;18.664;2023-05-23T06:56:11;20.70;90.30
52765;DHT22;38650;44.536;18.664;2023-05-23T06:58:36;20.80;90.00
52765;DHT22;38650;44.536;18.664;2023-05-23T07:01:02;21.00;90.60
52765;DHT22;38650;44.536;18.664;2023-05-23T07:03:28;21.10;89.60
52765;DHT22;38650;44.536;18.664;2023-05-23T07:05:53;21.30;87.60
52765;DHT22;38650;44.536;18.664;2023-05-23T07:08:19;21.40;85.70
52765;DHT22;38650;44.536;18.664;2023-05-23T07:10:44;21.50;88.30
52765;DHT22;38650;44.536;18.664;2023-05-23T07:13:10;21.60;86.90
52765;DHT22;38650;44.536;18.664;2023-05-23T07:15:36;21.80;87.40
52765;DHT22;38650;44.536;18.664;2023-05-23T07:18:01;22.10;83.30
52765;DHT22;38650;44.536;18.664;2023-05-23T07:20:27;22.10;80.70
52765;DHT22;38650;44.536;18.664;2023-05-23T07:22:52;22.90;78.30
52765;DHT22;38650;44.536;18.664;2023-05-23T07:25:18;25.60;76.70
52765;DHT22;38650;44.536;18.664;2023-05-23T07:27:43;28.20;65.60
52765;DHT22;38650;44.536;18.664;2023-05-23T07:30:09;30.30;59.00
52765;DHT22;38650;44.536;18.664;2023-05-23T07:32:35;31.80;56.30
52765;DHT22;38650;44.536;18.664;2023-05-23T07:35:01;33.00;53.90
52765;DHT22;38650;44.536;18.664;2023-05-23T07:37:26;34.10;50.10
52765;DHT22;38650;44.536;18.664;2023-05-23T07:39:52;35.00;47.50
52765;DHT22;38650;44.536;18.664;2023-05-23T07:42:18;35.20;45.20
52765;DHT22;38650;44.536;18.664;2023-05-23T07:44:44;35.70;45.00
52765;DHT22;38650;44.536;18.664;2023-05-23T07:47:09;35.80;42.80
52765;DHT22;38650;44.536;18.664;2023-05-23T07:49:35;36.20;43.20
52765;DHT22;38650;44.536;18.664;2023-05-23T07:52:00;36.30;42.00
52765;DHT22;38650;44.536;18.664;2023-05-23T07:54:26;36.70;40.90
52765;DHT22;38650;44.536;18.664;2023-05-23T07:56:52;36.80;41.40
52765;DHT22;38650;44.536;18.664;2023-05-23T07:59:18;37.00;41.50
52765;DHT22;38650;44.536;18.664;2023-05-23T08:01:44;37.20;41.30
52765;DHT22;38650;44.536;18.664;2023-05-23T08:04:10;37.30;40.90
52765;DHT22;38650;44.536;18.664;2023-05-23T08:06:36;37.30;40.50
52765;DHT22;38650;44.536;18.664;2023-05-23T08:09:02;37.50;39.60
52765;DHT22;38650;44.536;18.664;2023-05-23T08:11:28;37.30;39.30
52765;DHT22;38650;44.536;18.664;2023-05-23T08:13:54;37.60;39.50
52765;DHT22;38650;44.536;18.664;2023-05-23T08:16:20;37.30;39.50
52765;DHT22;38650;44.536;18.664;2023-05-23T08:18:45;37.50;39.10
52765;DHT22;38650;44.536;18.664;2023-05-23T08:21:11;37.70;40.30
52765;DHT22;38650;44.536;18.664;2023-05-23T08:23:36;37.70;37.20
52765;DHT22;38650;44.536;18.664;2023-05-23T08:26:02;37.10;40.70
52765;DHT22;38650;44.536;18.664;2023-05-23T08:28:28;37.20;39.50
52765;DHT22;38650;44.536;18.664;2023-05-23T08:30:54;37.10;38.30
52765;DHT22;38650;44.536;18.664;2023-05-23T08:33:21;37.60;41.00
52765;DHT22;38650;44.536;18.664;2023-05-23T08:35:47;37.70;37.70
52765;DHT22;38650;44.536;18.664;2023-05-23T08:38:12;38.00;37.30
52765;DHT22;38650;44.536;18.664;2023-05-23T08:40:40;37.90;37.60
52765;DHT22;38650;44.536;18.664;2023-05-23T08:43:09;38.10;39.30
52765;DHT22;38650;44.536;18.664;2023-05-23T08:45:39;38.30;38.90
52765;DHT22;38650;44.536;18.664;2023-05-23T08:48:08;37.70;35.30
52765;DHT22;38650;44.536;18.664;2023-05-23T08:50:40;37.20;36.50
52765;DHT22;38650;44.536;18.664;2023-05-23T08:53:11;37.50;35.90
52765;DHT22;38650;44.536;18.664;2023-05-23T08:55:49;37.40;37.30
52765;DHT22;38650;44.536;18.664;2023-05-23T08:58:19;37.40;36.80
52765;DHT22;38650;44.536;18.664;2023-05-23T09:00:59;37.60;38.00
52765;DHT22;38650;44.536;18.664;2023-05-23T09:03:32;37.60;38.50
52765;DHT22;38650;44.536;18.664;2023-05-23T09:05:58;37.60;38.50
52765;DHT22;38650;44.536;18.664;2023-05-23T09:08:24;37.80;39.00
52765;DHT22;38650;44.536;18.664;2023-05-23T09:10:54;38.00;36.80
52765;DHT22;38650;44.536;18.664;2023-05-23T09:13:23;37.20;35.10
52765;DHT22;38650;44.536;18.664;2023-05-23T09:16:06;37.00;37.00
52765;DHT22;38650;44.536;18.664;2023-05-23T09:18:33;37.30;38.80
52765;DHT22;38650;44.536;18.664;2023-05-23T09:21:04;37.50;39.70
52765;DHT22;38650;44.536;18.664;2023-05-23T09:23:40;37.50;37.30
52765;DHT22;38650;44.536;18.664;2023-05-23T09:26:14;37.20;38.40
52765;DHT22;38650;44.536;18.664;2023-05-23T09:28:41;36.90;38.50
52765;DHT22;38650;44.536;18.664;2023-05-23T09:31:07;36.70;39.80
52765;DHT22;38650;44.536;18.664;2023-05-23T09:36:06;36.50;40.70
52765;DHT22;38650;44.536;18.664;2023-05-23T09:38:40;36.50;39.50
52765;DHT22;38650;44.536;18.664;2023-05-23T09:41:12;36.30;38.40
52765;DHT22;38650;44.536;18.664;2023-05-23T09:43:50;36.10;41.40
52765;DHT22;38650;44.536;18.664;2023-05-23T09:46:17;36.30;41.10
52765;DHT22;38650;44.536;18.664;2023-05-23T09:48:49;35.90;41.00
52765;DHT22;38650;44.536;18.664;2023-05-23T09:51:19;35.80;39.70
52765;DHT22;38650;44.536;18.664;2023-05-23T09:53:45;36.00;41.90
52765;DHT22;38650;44.536;18.664;2023-05-23T09:56:11;35.70;41.90
52765;DHT22;38650;44.536;18.664;2023-05-23T09:58:38;35.50;40.40
52765;DHT22;38650;44.536;18.664;2023-05-23T10:01:05;35.30;38.30
52765;DHT22;38650;44.536;18.664;2023-05-23T10:03:33;35.50;39.60
52765;DHT22;38650;44.536;18.664;2023-05-23T10:06:00;35.50;39.70
52765;DHT22;38650;44.536;18.664;2023-05-23T10:08:31;35.90;39.40
52765;DHT22;38650;44.536;18.664;2023-05-23T10:11:58;35.90;38.40
52765;DHT22;38650;44.536;18.664;2023-05-23T10:13:44;35.70;40.00
52765;DHT22;38650;44.536;18.664;2023-05-23T10:18:43;35.20;41.60
52765;DHT22;38650;44.536;18.664;2023-05-23T10:21:10;35.60;42.50
52765;DHT22;38650;44.536;18.664;2023-05-23T10:23:36;35.90;39.70
52765;DHT22;38650;44.536;18.664;2023-05-23T10:26:03;36.10;41.50
52765;DHT22;38650;44.536;18.664;2023-05-23T10:28:29;35.60;39.10
52765;DHT22;38650;44.536;18.664;2023-05-23T10:30:55;33.90;38.10
52765;DHT22;38650;44.536;18.664;2023-05-23T10:33:21;33.30;39.70
52765;DHT22;38650;44.536;18.664;2023-05-23T10:38:27;33.50;44.40
52765;DHT22;38650;44.536;18.664;2023-05-23T10:43:24;34.40;41.20
52765;DHT22;38650;44.536;18.664;2023-05-23T10:45:53;34.80;42.50
52765;DHT22;38650;44.536;18.664;2023-05-23T10:51:00;35.50;43.20
52765;DHT22;38650;44.536;18.664;2023-05-23T10:53:27;35.20;41.50
52765;DHT22;38650;44.536;18.664;2023-05-23T10:55:54;34.40;42.10
52765;DHT22;38650;44.536;18.664;2023-05-23T10:58:20;33.90;41.60
52765;DHT22;38650;44.536;18.664;2023-05-23T11:00:58;33.40;41.20
52765;DHT22;38650;44.536;18.664;2023-05-23T11:03:34;33.00;41.70
52765;DHT22;38650;44.536;18.664;2023-05-23T11:06:00;32.40;43.30
52765;DHT22;38650;44.536;18.664;2023-05-23T11:08:27;32.60;43.70
52765;DHT22;38650;44.536;18.664;2023-05-23T11:10:55;32.40;44.70
52765;DHT22;38650;44.536;18.664;2023-05-23T11:13:23;32.10;42.90
52765;DHT22;38650;44.536;18.664;2023-05-23T11:15:48;31.70;43.80
52765;DHT22;38650;44.536;18.664;2023-05-23T11:20:46;31.20;44.90
52765;DHT22;38650;44.536;18.664;2023-05-23T11:23:14;31.80;46.00
52765;DHT22;38650;44.536;18.664;2023-05-23T11:25:49;32.50;45.50
52765;DHT22;38650;44.536;18.664;2023-05-23T11:28:15;33.00;46.20
52765;DHT22;38650;44.536;18.664;2023-05-23T11:30:41;33.40;43.10
52765;DHT22;38650;44.536;18.664;2023-05-23T11:33:07;33.80;42.30
52765;DHT22;38650;44.536;18.664;2023-05-23T11:35:34;34.00;41.40
52765;DHT22;38650;44.536;18.664;2023-05-23T11:38:01;34.60;39.50
52765;DHT22;38650;44.536;18.664;2023-05-23T11:40:34;34.80;38.90
52765;DHT22;38650;44.536;18.664;2023-05-23T11:43:04;34.80;40.20
52765;DHT22;38650;44.536;18.664;2023-05-23T11:45:31;35.00;42.10
52765;DHT22;38650;44.536;18.664;2023-05-23T11:47:57;35.10;42.00
52765;DHT22;38650;44.536;18.664;2023-05-23T11:50:22;35.10;42.10
52765;DHT22;38650;44.536;18.664;2023-05-23T11:52:53;35.10;40.40
52765;DHT22;38650;44.536;18.664;2023-05-23T11:55:21;35.30;41.70
52765;DHT22;38650;44.536;18.664;2023-05-23T11:57:47;35.40;40.00
52765;DHT22;38650;44.536;18.664;2023-05-23T12:00:13;35.50;40.90
52765;DHT22;38650;44.536;18.664;2023-05-23T12:02:39;35.10;39.70
52765;DHT22;38650;44.536;18.664;2023-05-23T12:05:06;35.20;39.90
52765;DHT22;38650;44.536;18.664;2023-05-23T12:07:32;34.70;39.50
52765;DHT22;38650;44.536;18.664;2023-05-23T12:09:57;34.70;44.80
52765;DHT22;38650;44.536;18.664;2023-05-23T12:12:23;34.80;41.60
52765;DHT22;38650;44.536;18.664;2023-05-23T12:14:49;35.10;39.60
52765;DHT22;38650;44.536;18.664;2023-05-23T12:17:14;34.90;39.20
52765;DHT22;38650;44.536;18.664;2023-05-23T12:19:44;35.10;38.00
52765;DHT22;38650;44.536;18.664;2023-05-23T12:22:10;34.90;41.20
52765;DHT22;38650;44.536;18.664;2023-05-23T12:24:43;35.20;39.70
52765;DHT22;38650;44.536;18.664;2023-05-23T12:27:09;35.30;41.20
52765;DHT22;38650;44.536;18.664;2023-05-23T12:29:34;35.60;40.30
52765;DHT22;38650;44.536;18.664;2023-05-23T12:32:02;35.80;39.70
52765;DHT22;38650;44.536;18.664;2023-05-23T12:34:28;35.70;39.60
52765;DHT22;38650;44.536;18.664;2023-05-23T12:36:57;35.50;39.70
52765;DHT22;38650;44.536;18.664;2023-05-23T12:39:23;34.60;39.80
52765;DHT22;38650;44.536;18.664;2023-05-23T12:41:50;34.20;39.00
52765;DHT22;38650;44.536;18.664;2023-05-23T12:44:16;33.70;37.80
52765;DHT22;38650;44.536;18.664;2023-05-23T12:46:41;33.40;39.00
52765;DHT22;38650;44.536;18.664;2023-05-23T12:49:07;33.10;39.00
52765;DHT22;38650;44.536;18.664;2023-05-23T12:51:33;33.00;40.70
52765;DHT22;38650;44.536;18.664;2023-05-23T12:53:59;33.40;41.80
52765;DHT22;38650;44.536;18.664;2023-05-23T12:56:25;33.70;41.50
52765;DHT22;38650;44.536;18.664;2023-05-23T12:58:50;34.00;38.80
52765;DHT22;38650;44.536;18.664;2023-05-23T13:01:18;34.30;38.10
52765;DHT22;38650;44.536;18.664;2023-05-23T13:03:44;34.50;41.20
52765;DHT22;38650;44.536;18.664;2023-05-23T13:06:09;34.70;38.20
52765;DHT22;38650;44.536;18.664;2023-05-23T13:08:35;34.80;39.50
52765;DHT22;38650;44.536;18.664;2023-05-23T13:11:01;34.70;39.70
52765;DHT22;38650;44.536;18.664;2023-05-23T13:13:27;34.80;39.90
52765;DHT22;38650;44.536;18.664;2023-05-23T13:15:52;35.00;41.00
52765;DHT22;38650;44.536;18.664;2023-05-23T13:18:18;34.60;37.90
52765;DHT22;38650;44.536;18.664;2023-05-23T13:20:44;34.30;38.80
52765;DHT22;38650;44.536;18.664;2023-05-23T13:23:10;34.00;39.10
52765;DHT22;38650;44.536;18.664;2023-05-23T13:25:36;33.60;39.40
52765;DHT22;38650;44.536;18.664;2023-05-23T13:28:01;33.30;39.10
52765;DHT22;38650;44.536;18.664;2023-05-23T13:30:27;33.00;39.80
52765;DHT22;38650;44.536;18.664;2023-05-23T13:32:53;33.10;41.10
52765;DHT22;38650;44.536;18.664;2023-05-23T13:35:19;33.30;40.00
52765;DHT22;38650;44.536;18.664;2023-05-23T13:37:45;33.30;42.30
52765;DHT22;38650;44.536;18.664;2023-05-23T13:40:17;33.60;43.50
52765;DHT22;38650;44.536;18.664;2023-05-23T13:42:45;33.70;39.40
52765;DHT22;38650;44.536;18.664;2023-05-23T13:45:10;33.30;41.40
52765;DHT22;38650;44.536;18.664;2023-05-23T13:47:36;33.40;43.90
52765;DHT22;38650;44.536;18.664;2023-05-23T13:50:04;34.00;41.40
52765;DHT22;38650;44.536;18.664;2023-05-23T13:52:30;34.20;41.10
52765;DHT22;38650;44.536;18.664;2023-05-23T13:54:56;34.60;40.10
52765;DHT22;38650;44.536;18.664;2023-05-23T13:57:21;34.30;39.10
52765;DHT22;38650;44.536;18.664;2023-05-23T13:59:47;34.40;40.50
52765;DHT22;38650;44.536;18.664;2023-05-23T14:02:12;34.60;41.10
52765;DHT22;38650;44.536;18.664;2023-05-23T14:04:38;34.60;40.80
52765;DHT22;38650;44.536;18.664;2023-05-23T14:07:03;34.60;41.50
52765;DHT22;38650;44.536;18.664;2023-05-23T14:09:29;34.80;39.00
52765;DHT22;38650;44.536;18.664;2023-05-23T14:11:55;34.60;37.70
52765;DHT22;38650;44.536;18.664;2023-05-23T14:14:20;34.50;39.30
52765;DHT22;38650;44.536;18.664;2023-05-23T14:16:48;34.60;40.30
52765;DHT22;38650;44.536;18.664;2023-05-23T14:19:14;34.70;41.50
52765;DHT22;38650;44.536;18.664;2023-05-23T14:21:40;34.80;39.30
52765;DHT22;38650;44.536;18.664;2023-05-23T14:24:05;34.80;37.20
52765;DHT22;38650;44.536;18.664;2023-05-23T14:26:31;34.90;38.50
52765;DHT22;38650;44.536;18.664;2023-05-23T14:28:57;35.10;41.80
52765;DHT22;38650;44.536;18.664;2023-05-23T14:31:23;35.00;37.40
52765;DHT22;38650;44.536;18.664;2023-05-23T14:33:48;34.70;37.90
52765;DHT22;38650;44.536;18.664;2023-05-23T14:36:14;34.50;37.50
52765;DHT22;38650;44.536;18.664;2023-05-23T14:38:40;34.40;38.20
52765;DHT22;38650;44.536;18.664;2023-05-23T14:41:10;34.00;37.20
52765;DHT22;38650;44.536;18.664;2023-05-23T14:43:35;33.80;39.60
52765;DHT22;38650;44.536;18.664;2023-05-23T14:46:01;33.60;39.80
52765;DHT22;38650;44.536;18.664;2023-05-23T14:48:26;33.40;38.40
52765;DHT22;38650;44.536;18.664;2023-05-23T14:50:52;32.90;39.50
52765;DHT22;38650;44.536;18.664;2023-05-23T14:53:17;32.90;40.60
52765;DHT22;38650;44.536;18.664;2023-05-23T14:55:46;32.90;39.30
52765;DHT22;38650;44.536;18.664;2023-05-23T14:58:12;32.80;40.10
52765;DHT22;38650;44.536;18.664;2023-05-23T15:00:37;32.60;38.70
52765;DHT22;38650;44.536;18.664;2023-05-23T15:03:05;32.50;40.10
52765;DHT22;38650;44.536;18.664;2023-05-23T15:05:30;32.30;38.70
52765;DHT22;38650;44.536;18.664;2023-05-23T15:07:56;32.20;40.80
52765;DHT22;38650;44.536;18.664;2023-05-23T15:10:21;32.00;39.30
52765;DHT22;38650;44.536;18.664;2023-05-23T15:12:47;31.90;40.20
52765;DHT22;38650;44.536;18.664;2023-05-23T15:15:12;31.80;40.10
52765;DHT22;38650;44.536;18.664;2023-05-23T15:17:38;31.80;40.70
52765;DHT22;38650;44.536;18.664;2023-05-23T15:20:04;32.00;42.00
52765;DHT22;38650;44.536;18.664;2023-05-23T15:22:30;31.80;39.20
52765;DHT22;38650;44.536;18.664;2023-05-23T15:24:57;31.60;39.40
52765;DHT22;38650;44.536;18.664;2023-05-23T15:27:23;31.70;42.40
52765;DHT22;38650;44.536;18.664;2023-05-23T15:29:49;31.70;39.90
52765;DHT22;38650;44.536;18.664;2023-05-23T15:32:14;31.70;39.40
52765;DHT22;38650;44.536;18.664;2023-05-23T15:34:40;31.70;39.50
52765;DHT22;38650;44.536;18.664;2023-05-23T15:37:06;31.60;40.50